sensor_id;sensor_type;location;lat;lon;timestamp;pressure;altitude;pressure_sealevel;temperature;humidity
46756;BME280;32506;52.826;-1.192;2023-07-13T00:01:11;100630.44;;;16.01;44.77
46756;BME280;32506;52.826;-1.192;2023-07-13T00:03:38;100629.28;;;15.97;44.82
46756;BME280;32506;52.826;-1.192;2023-07-13T00:06:06;100634.38;;;15.93;45.02
46756;BME280;32506;52.826;-1.192;2023-07-13T00:08:31;100627.84;;;15.89;44.98
46756;BME280;32506;52.826;-1.192;2023-07-13T00:10:58;100629.41;;;15.85;45.18
46756;BME280;32506;52.826;-1.192;2023-07-13T00:13:23;100627.44;;;15.80;45.26
46756;BME280;32506;52.826;-1.192;2023-07-13T00:15:48;100625.19;;;15.77;45.51
46756;BME280;32506;52.826;-1.192;2023-07-13T00:18:14;100629.19;;;15.74;45.66
46756;BME280;32506;52.826;-1.192;2023-07-13T00:20:39;100624.56;;;15.70;45.65
46756;BME280;32506;52.826;-1.192;2023-07-13T00:23:06;100629.63;;;15.66;45.81
46756;BME280;32506;52.826;-1.192;2023-07-13T00:25:31;100628.47;;;15.62;45.71
46756;BME280;32506;52.826;-1.192;2023-07-13T00:27:57;100631.63;;;15.59;45.98
46756;BME280;32506;52.826;-1.192;2023-07-13T00:30:22;100628.63;;;15.55;46.20
46756;BME280;32506;52.826;-1.192;2023-07-13T00:32:48;100627.50;;;15.51;46.10
46756;BME280;32506;52.826;-1.192;2023-07-13T00:35:13;100636.88;;;15.49;46.32
46756;BME280;32506;52.826;-1.192;2023-07-13T00:37:39;100625.78;;;15.45;46.36
46756;BME280;32506;52.826;-1.192;2023-07-13T00:40:06;100628.97;;;15.42;46.53
46756;BME280;32506;52.826;-1.192;2023-07-13T00:42:32;100624.28;;;15.37;46.65
46756;BME280;32506;52.826;-1.192;2023-07-13T00:45:00;100626.44;;;15.35;46.79
46756;BME280;32506;52.826;-1.192;2023-07-13T00:47:26;100633.34;;;15.31;46.78
46756;BME280;32506;52.826;-1.192;2023-07-13T00:49:51;100625.53;;;15.30;46.98
46756;BME280;32506;52.826;-1.192;2023-07-13T00:52:16;100626.25;;;15.25;46.97
46756;BME280;32506;52.826;-1.192;2023-07-13T00:54:43;100629.44;;;15.22;46.90
46756;BME280;32506;52.826;-1.192;2023-07-13T00:57:11;100634.22;;;15.20;47.09
46756;BME280;32506;52.826;-1.192;2023-07-13T00:59:37;100627.44;;;15.17;47.26
46756;BME280;32506;52.826;-1.192;2023-07-13T01:02:05;100627.13;;;15.14;47.26
46756;BME280;32506;52.826;-1.192;2023-07-13T01:04:30;100626.78;;;15.10;47.40
46756;BME280;32506;52.826;-1.192;2023-07-13T01:06:56;100628.88;;;15.08;47.47
46756;BME280;32506;52.826;-1.192;2023-07-13T01:09:22;100628.56;;;15.04;47.49
46756;BME280;32506;52.826;-1.192;2023-07-13T01:11:47;100624.75;;;15.00;47.62
46756;BME280;32506;52.826;-1.192;2023-07-13T01:14:13;100622.28;;;14.99;47.83
46756;BME280;32506;52.826;-1.192;2023-07-13T01:16:38;100627.09;;;14.97;47.88
46756;BME280;32506;52.826;-1.192;2023-07-13T01:19:08;100622.19;;;14.93;48.00
46756;BME280;32506;52.826;-1.192;2023-07-13T01:21:34;100618.91;;;14.91;48.22
46756;BME280;32506;52.826;-1.192;2023-07-13T01:24:00;100624.78;;;14.88;48.32
46756;BME280;32506;52.826;-1.192;2023-07-13T01:26:26;100625.03;;;14.87;48.41
46756;BME280;32506;52.826;-1.192;2023-07-13T01:28:52;100625.47;;;14.84;48.41
46756;BME280;32506;52.826;-1.192;2023-07-13T01:31:17;100630.31;;;14.82;48.46
46756;BME280;32506;52.826;-1.192;2023-07-13T01:33:43;100627.03;;;14.80;48.49
46756;BME280;32506;52.826;-1.192;2023-07-13T01:36:08;100621.31;;;14.76;48.48
46756;BME280;32506;52.826;-1.192;2023-07-13T01:38:35;100626.13;;;14.74;48.45
46756;BME280;32506;52.826;-1.192;2023-07-13T01:41:00;100628.25;;;14.72;48.47
46756;BME280;32506;52.826;-1.192;2023-07-13T01:43:26;100626.00;;;14.69;48.54
46756;BME280;32506;52.826;-1.192;2023-07-13T01:45:51;100619.22;;;14.66;48.46
46756;BME280;32506;52.826;-1.192;2023-07-13T01:48:16;100623.81;;;14.66;48.66
46756;BME280;32506;52.826;-1.192;2023-07-13T01:50:42;100621.56;;;14.63;48.53
46756;BME280;32506;52.826;-1.192;2023-07-13T01:53:07;100625.56;;;14.60;48.69
46756;BME280;32506;52.826;-1.192;2023-07-13T01:55:33;100633.88;;;14.58;48.88
46756;BME280;32506;52.826;-1.192;2023-07-13T01:57:58;100627.09;;;14.56;48.91
46756;BME280;32506;52.826;-1.192;2023-07-13T02:00:24;100625.44;;;14.55;48.92
46756;BME280;32506;52.826;-1.192;2023-07-13T02:02:49;100628.94;;;14.55;49.00
46756;BME280;32506;52.826;-1.192;2023-07-13T02:05:15;100624.06;;;14.52;48.94
46756;BME280;32506;52.826;-1.192;2023-07-13T02:07:41;100622.41;;;14.51;49.22
46756;BME280;32506;52.826;-1.192;2023-07-13T02:10:07;100626.97;;;14.51;49.38
46756;BME280;32506;52.826;-1.192;2023-07-13T02:12:33;100624.28;;;14.51;49.56
46756;BME280;32506;52.826;-1.192;2023-07-13T02:14:58;100626.16;;;14.50;49.87
46756;BME280;32506;52.826;-1.192;2023-07-13T02:17:24;100621.84;;;14.49;49.95
46756;BME280;32506;52.826;-1.192;2023-07-13T02:19:49;100624.53;;;14.49;50.06
46756;BME280;32506;52.826;-1.192;2023-07-13T02:22:14;100629.66;;;14.51;49.95
46756;BME280;32506;52.826;-1.192;2023-07-13T02:24:40;100626.16;;;14.50;50.03
46756;BME280;32506;52.826;-1.192;2023-07-13T02:27:05;100624.53;;;14.49;49.96
46756;BME280;32506;52.826;-1.192;2023-07-13T02:29:30;100620.75;;;14.50;50.24
46756;BME280;32506;52.826;-1.192;2023-07-13T02:31:56;100619.16;;;14.49;50.33
46756;BME280;32506;52.826;-1.192;2023-07-13T02:34:21;100633.16;;;14.51;50.59
46756;BME280;32506;52.826;-1.192;2023-07-13T02:36:46;100632.91;;;14.53;50.87
46756;BME280;32506;52.826;-1.192;2023-07-13T02:39:12;100618.66;;;14.52;50.88
46756;BME280;32506;52.826;-1.192;2023-07-13T02:41:37;100632.72;;;14.54;51.10
46756;BME280;32506;52.826;-1.192;2023-07-13T02:44:03;100628.38;;;14.53;51.19
46756;BME280;32506;52.826;-1.192;2023-07-13T02:46:29;100626.50;;;14.54;51.12
46756;BME280;32506;52.826;-1.192;2023-07-13T02:48:55;100630.81;;;14.55;51.19
46756;BME280;32506;52.826;-1.192;2023-07-13T02:51:20;100631.63;;;14.55;51.27
46756;BME280;32506;52.826;-1.192;2023-07-13T02:53:45;100625.44;;;14.55;51.28
46756;BME280;32506;52.826;-1.192;2023-07-13T02:56:11;100632.47;;;14.56;51.43
46756;BME280;32506;52.826;-1.192;2023-07-13T02:58:36;100637.00;;;14.55;51.34
46756;BME280;32506;52.826;-1.192;2023-07-13T03:01:06;100634.31;;;14.55;51.38
46756;BME280;32506;52.826;-1.192;2023-07-13T03:03:31;100635.16;;;14.56;51.45
46756;BME280;32506;52.826;-1.192;2023-07-13T03:05:58;100628.13;;;14.55;51.21
46756;BME280;32506;52.826;-1.192;2023-07-13T03:08:25;100633.50;;;14.55;51.43
46756;BME280;32506;52.826;-1.192;2023-07-13T03:10:58;100638.09;;;14.54;51.35
46756;BME280;32506;52.826;-1.192;2023-07-13T03:13:23;100624.84;;;14.53;51.27
46756;BME280;32506;52.826;-1.192;2023-07-13T03:15:49;100625.94;;;14.52;51.36
46756;BME280;32506;52.826;-1.192;2023-07-13T03:18:14;100626.16;;;14.50;51.18
46756;BME280;32506;52.826;-1.192;2023-07-13T03:20:39;100633.41;;;14.50;51.44
46756;BME280;32506;52.826;-1.192;2023-07-13T03:23:04;100630.97;;;14.48;51.37
46756;BME280;32506;52.826;-1.192;2023-07-13T03:25:30;100625.00;;;14.46;51.41
46756;BME280;32506;52.826;-1.192;2023-07-13T03:27:55;100620.69;;;14.45;51.45
46756;BME280;32506;52.826;-1.192;2023-07-13T03:30:20;100625.22;;;14.44;51.58
46756;BME280;32506;52.826;-1.192;2023-07-13T03:32:45;100628.97;;;14.43;51.52
46756;BME280;32506;52.826;-1.192;2023-07-13T03:35:11;100623.81;;;14.42;51.56
46756;BME280;32506;52.826;-1.192;2023-07-13T03:37:36;100621.38;;;14.40;51.76
46756;BME280;32506;52.826;-1.192;2023-07-13T03:40:07;100622.44;;;14.39;51.62
46756;BME280;32506;52.826;-1.192;2023-07-13T03:42:34;100621.88;;;14.37;51.72
46756;BME280;32506;52.826;-1.192;2023-07-13T03:44:59;100630.97;;;14.36;51.81
46756;BME280;32506;52.826;-1.192;2023-07-13T03:47:25;100630.41;;;14.34;51.69
46756;BME280;32506;52.826;-1.192;2023-07-13T03:49:50;100636.00;;;14.33;51.74
46756;BME280;32506;52.826;-1.192;2023-07-13T03:52:15;100620.94;;;14.32;51.83
46756;BME280;32506;52.826;-1.192;2023-07-13T03:54:41;100631.94;;;14.30;51.77
46756;BME280;32506;52.826;-1.192;2023-07-13T03:57:06;100631.34;;;14.28;51.73
46756;BME280;32506;52.826;-1.192;2023-07-13T03:59:31;100630.53;;;14.27;51.87
46756;BME280;32506;52.826;-1.192;2023-07-13T04:01:57;100631.59;;;14.26;51.76
46756;BME280;32506;52.826;-1.192;2023-07-13T04:04:22;100630.19;;;14.24;51.98
46756;BME280;32506;52.826;-1.192;2023-07-13T04:06:47;100630.44;;;14.22;51.98
46756;BME280;32506;52.826;-1.192;2023-07-13T04:09:13;100626.91;;;14.22;52.08
46756;BME280;32506;52.826;-1.192;2023-07-13T04:11:38;100632.53;;;14.20;52.08
46756;BME280;32506;52.826;-1.192;2023-07-13T04:14:04;100635.22;;;14.20;52.13
46756;BME280;32506;52.826;-1.192;2023-07-13T04:16:29;100633.56;;;14.19;52.11
46756;BME280;32506;52.826;-1.192;2023-07-13T04:18:55;100640.00;;;14.18;52.11
46756;BME280;32506;52.826;-1.192;2023-07-13T04:21:24;100632.19;;;14.17;52.20
46756;BME280;32506;52.826;-1.192;2023-07-13T04:23:50;100635.69;;;14.17;52.08
46756;BME280;32506;52.826;-1.192;2023-07-13T04:26:15;100638.38;;;14.17;52.27
46756;BME280;32506;52.826;-1.192;2023-07-13T04:28:41;100644.78;;;14.16;52.30
46756;BME280;32506;52.826;-1.192;2023-07-13T04:31:06;100644.00;;;14.16;52.53
46756;BME280;32506;52.826;-1.192;2023-07-13T04:33:31;100645.63;;;14.17;52.53
46756;BME280;32506;52.826;-1.192;2023-07-13T04:35:57;100642.94;;;14.17;52.52
46756;BME280;32506;52.826;-1.192;2023-07-13T04:38:27;100656.16;;;14.18;52.82
46756;BME280;32506;52.826;-1.192;2023-07-13T04:40:56;100652.38;;;14.19;53.00
46756;BME280;32506;52.826;-1.192;2023-07-13T04:43:22;100662.09;;;14.20;53.22
46756;BME280;32506;52.826;-1.192;2023-07-13T04:45:47;100658.13;;;14.23;53.33
46756;BME280;32506;52.826;-1.192;2023-07-13T04:48:13;100661.63;;;14.23;53.37
46756;BME280;32506;52.826;-1.192;2023-07-13T04:50:38;100668.19;;;14.27;53.62
46756;BME280;32506;52.826;-1.192;2023-07-13T04:53:04;100664.66;;;14.27;53.66
46756;BME280;32506;52.826;-1.192;2023-07-13T04:55:29;100665.25;;;14.29;53.63
46756;BME280;32506;52.826;-1.192;2023-07-13T04:57:55;100668.50;;;14.31;53.82
46756;BME280;32506;52.826;-1.192;2023-07-13T05:00:21;100675.53;;;14.32;53.82
46756;BME280;32506;52.826;-1.192;2023-07-13T05:02:46;100686.88;;;14.34;54.00
46756;BME280;32506;52.826;-1.192;2023-07-13T05:05:11;100674.84;;;14.37;53.95
46756;BME280;32506;52.826;-1.192;2023-07-13T05:07:37;100677.53;;;14.37;54.12
46756;BME280;32506;52.826;-1.192;2023-07-13T05:10:02;100674.59;;;14.38;54.30
46756;BME280;32506;52.826;-1.192;2023-07-13T05:12:29;100677.84;;;14.40;54.26
46756;BME280;32506;52.826;-1.192;2023-07-13T05:14:54;100675.16;;;14.40;54.25
46756;BME280;32506;52.826;-1.192;2023-07-13T05:17:19;100686.50;;;14.42;54.25
46756;BME280;32506;52.826;-1.192;2023-07-13T05:19:45;100688.97;;;14.44;54.20
46756;BME280;32506;52.826;-1.192;2023-07-13T05:22:10;100695.13;;;14.44;54.21
46756;BME280;32506;52.826;-1.192;2023-07-13T05:24:35;100692.44;;;14.44;54.28
46756;BME280;32506;52.826;-1.192;2023-07-13T05:27:01;100699.22;;;14.47;54.03
46756;BME280;32506;52.826;-1.192;2023-07-13T05:29:26;100691.75;;;14.49;54.10
46756;BME280;32506;52.826;-1.192;2023-07-13T05:31:51;100698.75;;;14.50;54.10
46756;BME280;32506;52.826;-1.192;2023-07-13T05:34:17;100704.72;;;14.52;54.05
46756;BME280;32506;52.826;-1.192;2023-07-13T05:36:42;100702.63;;;14.54;53.94
46756;BME280;32506;52.826;-1.192;2023-07-13T05:39:08;100707.78;;;14.56;53.91
46756;BME280;32506;52.826;-1.192;2023-07-13T05:41:33;100712.91;;;14.57;53.93
46756;BME280;32506;52.826;-1.192;2023-07-13T05:43:59;100711.63;;;14.60;53.83
46756;BME280;32506;52.826;-1.192;2023-07-13T05:46:24;100722.94;;;14.62;53.67
46756;BME280;32506;52.826;-1.192;2023-07-13T05:48:49;100722.72;;;14.64;53.75
46756;BME280;32506;52.826;-1.192;2023-07-13T05:51:15;100722.28;;;14.67;53.75
46756;BME280;32506;52.826;-1.192;2023-07-13T05:53:40;100726.38;;;14.69;53.74
46756;BME280;32506;52.826;-1.192;2023-07-13T05:56:05;100727.78;;;14.72;53.62
46756;BME280;32506;52.826;-1.192;2023-07-13T05:58:31;100728.09;;;14.75;53.67
46756;BME280;32506;52.826;-1.192;2023-07-13T06:01:03;100738.16;;;14.80;53.38
46756;BME280;32506;52.826;-1.192;2023-07-13T06:03:29;100746.81;;;14.82;53.39
46756;BME280;32506;52.826;-1.192;2023-07-13T06:05:54;100747.16;;;14.86;53.54
46756;BME280;32506;52.826;-1.192;2023-07-13T06:08:20;100754.28;;;14.92;53.87
46756;BME280;32506;52.826;-1.192;2023-07-13T06:10:45;100758.34;;;14.94;53.88
46756;BME280;32506;52.826;-1.192;2023-07-13T06:13:10;100757.91;;;14.98;53.93
46756;BME280;32506;52.826;-1.192;2023-07-13T06:15:36;100758.00;;;15.03;53.93
46756;BME280;32506;52.826;-1.192;2023-07-13T06:18:01;100756.47;;;15.07;54.08
46756;BME280;32506;52.826;-1.192;2023-07-13T06:20:26;100756.59;;;15.12;54.12
46756;BME280;32506;52.826;-1.192;2023-07-13T06:22:52;100761.25;;;15.17;54.11
46756;BME280;32506;52.826;-1.192;2023-07-13T06:25:17;100763.19;;;15.21;54.13
46756;BME280;32506;52.826;-1.192;2023-07-13T06:27:43;100758.75;;;15.27;54.26
46756;BME280;32506;52.826;-1.192;2023-07-13T06:30:08;100758.84;;;15.32;54.31
46756;BME280;32506;52.826;-1.192;2023-07-13T06:32:34;100764.31;;;15.37;54.25
46756;BME280;32506;52.826;-1.192;2023-07-13T06:34:59;100760.69;;;15.43;54.47
46756;BME280;32506;52.826;-1.192;2023-07-13T06:37:24;100766.97;;;15.49;54.38
46756;BME280;32506;52.826;-1.192;2023-07-13T06:39:50;100774.91;;;15.56;54.42
46756;BME280;32506;52.826;-1.192;2023-07-13T06:42:16;100772.31;;;15.61;54.68
46756;BME280;32506;52.826;-1.192;2023-07-13T06:44:41;100767.56;;;15.68;54.80
46756;BME280;32506;52.826;-1.192;2023-07-13T06:47:07;100771.75;;;15.76;54.97
46756;BME280;32506;52.826;-1.192;2023-07-13T06:49:32;100763.31;;;15.84;54.99
46756;BME280;32506;52.826;-1.192;2023-07-13T06:51:57;100775.56;;;15.92;55.20
46756;BME280;32506;52.826;-1.192;2023-07-13T06:54:23;100769.78;;;16.00;55.43
46756;BME280;32506;52.826;-1.192;2023-07-13T06:56:48;100774.75;;;16.08;55.39
46756;BME280;32506;52.826;-1.192;2023-07-13T06:59:13;100782.44;;;16.17;55.56
46756;BME280;32506;52.826;-1.192;2023-07-13T07:01:38;100774.75;;;16.25;55.57
46756;BME280;32506;52.826;-1.192;2023-07-13T07:04:04;100775.41;;;16.33;55.85
46756;BME280;32506;52.826;-1.192;2023-07-13T07:06:29;100782.25;;;16.40;55.84
46756;BME280;32506;52.826;-1.192;2023-07-13T07:08:54;100782.44;;;16.51;55.89
46756;BME280;32506;52.826;-1.192;2023-07-13T07:11:21;100780.09;;;16.59;55.92
46756;BME280;32506;52.826;-1.192;2023-07-13T07:13:50;100779.69;;;16.68;55.92
46756;BME280;32506;52.826;-1.192;2023-07-13T07:16:15;100778.44;;;16.75;55.94
46756;BME280;32506;52.826;-1.192;2023-07-13T07:18:40;100787.75;;;16.85;55.98
46756;BME280;32506;52.826;-1.192;2023-07-13T07:21:06;100787.34;;;16.93;55.94
46756;BME280;32506;52.826;-1.192;2023-07-13T07:23:31;100793.94;;;17.02;56.09
46756;BME280;32506;52.826;-1.192;2023-07-13T07:25:56;100791.88;;;17.09;55.89
46756;BME280;32506;52.826;-1.192;2023-07-13T07:28:22;100797.66;;;17.18;55.96
46756;BME280;32506;52.826;-1.192;2023-07-13T07:30:47;100791.78;;;17.26;55.76
46756;BME280;32506;52.826;-1.192;2023-07-13T07:33:13;100803.00;;;17.35;55.84
46756;BME280;32506;52.826;-1.192;2023-07-13T07:35:39;100798.78;;;17.44;55.83
46756;BME280;32506;52.826;-1.192;2023-07-13T07:38:04;100803.72;;;17.53;55.61
46756;BME280;32506;52.826;-1.192;2023-07-13T07:40:29;100802.19;;;17.62;55.64
46756;BME280;32506;52.826;-1.192;2023-07-13T07:42:56;100805.25;;;17.71;55.58
46756;BME280;32506;52.826;-1.192;2023-07-13T07:45:21;100809.94;;;17.81;55.72
46756;BME280;32506;52.826;-1.192;2023-07-13T07:47:46;100813.81;;;17.90;55.46
46756;BME280;32506;52.826;-1.192;2023-07-13T07:50:12;100816.91;;;17.99;55.49
46756;BME280;32506;52.826;-1.192;2023-07-13T07:52:37;100810.50;;;18.10;55.55
46756;BME280;32506;52.826;-1.192;2023-07-13T07:55:03;100817.06;;;18.19;55.47
46756;BME280;32506;52.826;-1.192;2023-07-13T07:57:29;100825.28;;;18.30;55.55
46756;BME280;32506;52.826;-1.192;2023-07-13T07:59:54;100824.53;;;18.39;55.50
46756;BME280;32506;52.826;-1.192;2023-07-13T08:02:19;100829.75;;;18.51;55.36
46756;BME280;32506;52.826;-1.192;2023-07-13T08:04:45;100821.72;;;18.61;55.44
46756;BME280;32506;52.826;-1.192;2023-07-13T08:07:10;100829.66;;;18.73;55.39
46756;BME280;32506;52.826;-1.192;2023-07-13T08:09:35;100832.13;;;18.85;55.34
46756;BME280;32506;52.826;-1.192;2023-07-13T08:12:01;100831.97;;;18.97;55.23
46756;BME280;32506;52.826;-1.192;2023-07-13T08:14:26;100830.69;;;19.10;55.33
46756;BME280;32506;52.826;-1.192;2023-07-13T08:16:51;100836.13;;;19.20;55.26
46756;BME280;32506;52.826;-1.192;2023-07-13T08:19:17;100835.09;;;19.32;55.25
46756;BME280;32506;52.826;-1.192;2023-07-13T08:21:42;100837.88;;;19.42;55.18
46756;BME280;32506;52.826;-1.192;2023-07-13T08:24:08;100828.94;;;19.52;55.05
46756;BME280;32506;52.826;-1.192;2023-07-13T08:26:33;100834.41;;;19.62;55.02
46756;BME280;32506;52.826;-1.192;2023-07-13T08:28:59;100828.69;;;19.74;54.96
46756;BME280;32506;52.826;-1.192;2023-07-13T08:31:24;100823.34;;;19.84;54.73
46756;BME280;32506;52.826;-1.192;2023-07-13T08:33:49;100829.59;;;19.95;54.76
46756;BME280;32506;52.826;-1.192;2023-07-13T08:36:15;100828.53;;;20.06;54.76
46756;BME280;32506;52.826;-1.192;2023-07-13T08:38:40;100834.78;;;20.17;54.37
46756;BME280;32506;52.826;-1.192;2023-07-13T08:41:13;100829.31;;;20.27;54.38
46756;BME280;32506;52.826;-1.192;2023-07-13T08:43:39;100829.06;;;20.39;54.40
46756;BME280;32506;52.826;-1.192;2023-07-13T08:56:39;100824.66;;;20.95;53.82
46756;BME280;32506;52.826;-1.192;2023-07-13T08:59:12;100830.56;;;21.07;53.59
46756;BME280;32506;52.826;-1.192;2023-07-13T09:04:19;100831.03;;;21.30;53.49
46756;BME280;32506;52.826;-1.192;2023-07-13T09:09:19;100827.69;;;21.49;52.83
46756;BME280;32506;52.826;-1.192;2023-07-13T09:11:52;100837.72;;;21.58;52.87
46756;BME280;32506;52.826;-1.192;2023-07-13T09:16:52;100840.03;;;21.75;52.79
46756;BME280;32506;52.826;-1.192;2023-07-13T09:19:21;100841.13;;;21.79;52.54
46756;BME280;32506;52.826;-1.192;2023-07-13T09:21:48;100839.47;;;21.84;51.89
46756;BME280;32506;52.826;-1.192;2023-07-13T09:24:26;100843.25;;;21.88;51.68
46756;BME280;32506;52.826;-1.192;2023-07-13T09:26:53;100847.03;;;21.92;51.50
46756;BME280;32506;52.826;-1.192;2023-07-13T09:29:26;100841.81;;;21.95;51.10
46756;BME280;32506;52.826;-1.192;2023-07-13T09:31:53;100837.72;;;21.98;50.66
46756;BME280;32506;52.826;-1.192;2023-07-13T09:34:19;100839.88;;;22.01;50.41
46756;BME280;32506;52.826;-1.192;2023-07-13T09:36:44;100843.13;;;22.03;50.21
46756;BME280;32506;52.826;-1.192;2023-07-13T09:39:14;100851.00;;;22.05;50.03
46756;BME280;32506;52.826;-1.192;2023-07-13T09:44:14;100842.28;;;22.08;49.49
46756;BME280;32506;52.826;-1.192;2023-07-13T09:46:44;100836.56;;;22.09;49.64
46756;BME280;32506;52.826;-1.192;2023-07-13T09:49:11;100845.22;;;22.11;49.54
46756;BME280;32506;52.826;-1.192;2023-07-13T09:51:37;100847.66;;;22.13;49.31
46756;BME280;32506;52.826;-1.192;2023-07-13T09:54:03;100846.28;;;22.16;49.28
46756;BME280;32506;52.826;-1.192;2023-07-13T09:56:28;100853.38;;;22.17;49.22
46756;BME280;32506;52.826;-1.192;2023-07-13T09:58:55;100857.44;;;22.19;49.19
46756;BME280;32506;52.826;-1.192;2023-07-13T10:01:37;100860.41;;;22.23;48.92
46756;BME280;32506;52.826;-1.192;2023-07-13T10:04:09;100853.28;;;22.27;48.59
46756;BME280;32506;52.826;-1.192;2023-07-13T10:06:36;100854.84;;;22.33;48.65
46756;BME280;32506;52.826;-1.192;2023-07-13T10:09:01;100849.66;;;22.42;48.95
46756;BME280;32506;52.826;-1.192;2023-07-13T10:11:28;100852.81;;;22.54;48.99
46756;BME280;32506;52.826;-1.192;2023-07-13T10:13:59;100844.78;;;22.68;49.18
46756;BME280;32506;52.826;-1.192;2023-07-13T10:16:28;100852.19;;;22.87;49.13
46756;BME280;32506;52.826;-1.192;2023-07-13T10:18:58;100861.25;;;23.06;49.30
46756;BME280;32506;52.826;-1.192;2023-07-13T10:21:27;100844.97;;;23.25;49.32
46756;BME280;32506;52.826;-1.192;2023-07-13T10:23:54;100849.94;;;23.42;49.15
46756;BME280;32506;52.826;-1.192;2023-07-13T10:26:29;100847.28;;;23.56;49.12
46756;BME280;32506;52.826;-1.192;2023-07-13T10:28:56;100850.38;;;23.69;49.12
46756;BME280;32506;52.826;-1.192;2023-07-13T10:31:22;100860.66;;;23.77;49.00
46756;BME280;32506;52.826;-1.192;2023-07-13T10:33:48;100850.47;;;23.83;49.11
46756;BME280;32506;52.826;-1.192;2023-07-13T10:36:34;100858.88;;;23.86;48.99
46756;BME280;32506;52.826;-1.192;2023-07-13T10:39:04;100859.13;;;23.90;48.86
46756;BME280;32506;52.826;-1.192;2023-07-13T10:41:30;100874.41;;;23.91;48.30
46756;BME280;32506;52.826;-1.192;2023-07-13T10:43:57;100868.16;;;23.90;47.92
46756;BME280;32506;52.826;-1.192;2023-07-13T10:46:24;100873.34;;;23.87;47.58
46756;BME280;32506;52.826;-1.192;2023-07-13T10:48:53;100871.22;;;23.84;47.41
46756;BME280;32506;52.826;-1.192;2023-07-13T10:51:20;100860.88;;;23.80;47.44
46756;BME280;32506;52.826;-1.192;2023-07-13T10:53:46;100862.56;;;23.76;47.38
46756;BME280;32506;52.826;-1.192;2023-07-13T10:58:43;100859.69;;;23.68;46.89
46756;BME280;32506;52.826;-1.192;2023-07-13T11:01:13;100859.78;;;23.62;47.16
46756;BME280;32506;52.826;-1.192;2023-07-13T11:08:37;100853.41;;;23.48;46.81
46756;BME280;32506;52.826;-1.192;2023-07-13T11:11:04;100857.84;;;23.44;46.78
46756;BME280;32506;52.826;-1.192;2023-07-13T11:18:46;100854.06;;;23.40;46.20
46756;BME280;32506;52.826;-1.192;2023-07-13T11:21:19;100854.31;;;23.43;46.46
46756;BME280;32506;52.826;-1.192;2023-07-13T11:23:51;100854.50;;;23.47;46.11
46756;BME280;32506;52.826;-1.192;2023-07-13T11:29:07;100853.22;;;23.63;46.47
46756;BME280;32506;52.826;-1.192;2023-07-13T11:31:32;100858.81;;;23.72;46.32
46756;BME280;32506;52.826;-1.192;2023-07-13T11:33:58;100862.50;;;23.82;46.46
46756;BME280;32506;52.826;-1.192;2023-07-13T11:36:28;100861.84;;;23.90;46.41
46756;BME280;32506;52.826;-1.192;2023-07-13T11:43:45;100869.06;;;24.19;46.32
46756;BME280;32506;52.826;-1.192;2023-07-13T11:46:15;100861.00;;;24.27;46.33
46756;BME280;32506;52.826;-1.192;2023-07-13T11:48:41;100857.00;;;24.39;46.18
46756;BME280;32506;52.826;-1.192;2023-07-13T11:51:07;100856.78;;;24.49;45.86
46756;BME280;32506;52.826;-1.192;2023-07-13T11:53:43;100851.97;;;24.60;45.80
46756;BME280;32506;52.826;-1.192;2023-07-13T11:56:10;100851.81;;;24.70;45.86
46756;BME280;32506;52.826;-1.192;2023-07-13T11:58:35;100854.66;;;24.79;45.68
46756;BME280;32506;52.826;-1.192;2023-07-13T12:01:01;100844.63;;;24.88;45.44
46756;BME280;32506;52.826;-1.192;2023-07-13T12:03:29;100844.75;;;24.97;45.52
46756;BME280;32506;52.826;-1.192;2023-07-13T12:05:59;100847.88;;;25.04;45.52
46756;BME280;32506;52.826;-1.192;2023-07-13T12:08:26;100848.59;;;25.10;45.45
46756;BME280;32506;52.826;-1.192;2023-07-13T12:11:03;100842.41;;;25.18;45.30
46756;BME280;32506;52.826;-1.192;2023-07-13T12:13:34;100837.63;;;25.24;45.32
46756;BME280;32506;52.826;-1.192;2023-07-13T12:16:00;100832.88;;;25.29;45.24
46756;BME280;32506;52.826;-1.192;2023-07-13T12:18:29;100834.97;;;25.33;45.12
46756;BME280;32506;52.826;-1.192;2023-07-13T12:20:55;100834.09;;;25.37;44.87
46756;BME280;32506;52.826;-1.192;2023-07-13T12:23:26;100833.69;;;25.44;44.84
46756;BME280;32506;52.826;-1.192;2023-07-13T12:25:53;100829.44;;;25.52;44.86
46756;BME280;32506;52.826;-1.192;2023-07-13T12:28:19;100829.81;;;25.59;44.71
46756;BME280;32506;52.826;-1.192;2023-07-13T12:30:47;100834.22;;;25.69;44.66
46756;BME280;32506;52.826;-1.192;2023-07-13T12:33:13;100826.41;;;25.76;44.85
46756;BME280;32506;52.826;-1.192;2023-07-13T12:35:40;100826.78;;;25.83;44.74
46756;BME280;32506;52.826;-1.192;2023-07-13T12:38:07;100832.63;;;25.90;44.78
46756;BME280;32506;52.826;-1.192;2023-07-13T12:40:34;100832.50;;;25.95;44.68
46756;BME280;32506;52.826;-1.192;2023-07-13T12:43:00;100831.25;;;26.02;44.66
46756;BME280;32506;52.826;-1.192;2023-07-13T12:45:27;100825.38;;;26.08;44.40
46756;BME280;32506;52.826;-1.192;2023-07-13T12:47:56;100828.47;;;26.16;44.39
46756;BME280;32506;52.826;-1.192;2023-07-13T12:50:29;100832.09;;;26.25;44.51
46756;BME280;32506;52.826;-1.192;2023-07-13T12:53:02;100833.75;;;26.35;44.15
46756;BME280;32506;52.826;-1.192;2023-07-13T12:55:28;100820.59;;;26.45;44.05
46756;BME280;32506;52.826;-1.192;2023-07-13T12:57:58;100815.16;;;26.54;44.17
46756;BME280;32506;52.826;-1.192;2023-07-13T13:02:57;100819.31;;;26.74;43.88
46756;BME280;32506;52.826;-1.192;2023-07-13T13:05:25;100816.28;;;26.85;43.79
46756;BME280;32506;52.826;-1.192;2023-07-13T13:07:50;100813.75;;;26.97;43.73
46756;BME280;32506;52.826;-1.192;2023-07-13T13:10:16;100810.38;;;27.09;43.62
46756;BME280;32506;52.826;-1.192;2023-07-13T13:12:41;100808.94;;;27.20;43.45
46756;BME280;32506;52.826;-1.192;2023-07-13T13:15:10;100806.06;;;27.34;43.52
46756;BME280;32506;52.826;-1.192;2023-07-13T13:17:36;100804.00;;;27.49;43.20
46756;BME280;32506;52.826;-1.192;2023-07-13T13:20:04;100801.59;;;27.65;43.12